Time;durP1;ratioP1;P1;durP2;ratioP2;P2;SDS_P1;SDS_P2;PMS_P1;PMS_P2;Temp;Humidity;BMP_temperature;BMP_pressure;BME280_temperature;BME280_humidity;BME280_pressure;Samples;Min_cycle;Max_cycle;Signal;HPM_P1;HPM_P2
2023/08/05 00:00:13;;;;;;;2.67;2.13;;;17.80;99.90;;;;;;5003396;28;20756;-72
2023/08/05 00:02:39;;;;;;;3.80;3.07;;;17.70;99.90;;;;;;5036933;28;20355;-72
2023/08/05 00:05:06;;;;;;;3.00;2.53;;;17.70;99.90;;;;;;5037397;28;20525;-72
2023/08/05 00:07:32;;;;;;;2.50;2.30;;;17.60;99.90;;;;;;5019277;28;20233;-72
2023/08/05 00:09:57;;;;;;;3.13;2.83;;;17.60;99.90;;;;;;5018937;28;20494;-73
2023/08/05 00:12:23;;;;;;;3.63;2.67;;;17.70;99.90;;;;;;5016281;28;20237;-72
2023/08/05 00:14:49;;;;;;;2.40;2.27;;;17.60;99.90;;;;;;5033968;28;20290;-73
2023/08/05 00:17:14;;;;;;;2.40;2.20;;;17.60;99.90;;;;;;5033205;28;20235;-73
2023/08/05 00:19:42;;;;;;;2.20;2.10;;;17.60;99.90;;;;;;5014796;28;20332;-73
2023/08/05 00:22:07;;;;;;;2.27;2.10;;;17.50;99.90;;;;;;5014078;28;20259;-72
2023/08/05 00:24:33;;;;;;;5.07;3.50;;;17.50;99.90;;;;;;5014965;28;20488;-73
2023/08/05 00:26:59;;;;;;;2.67;2.47;;;17.60;99.90;;;;;;4999860;28;20218;-73
2023/08/05 00:29:24;;;;;;;3.73;2.00;;;17.60;99.90;;;;;;5032112;28;20224;-73
2023/08/05 00:31:50;;;;;;;2.60;2.23;;;17.60;99.90;;;;;;4998016;28;20260;-72
2023/08/05 00:34:15;;;;;;;2.87;2.57;;;17.40;99.90;;;;;;5016632;28;20233;-73
2023/08/05 00:36:41;;;;;;;3.53;2.23;;;17.50;99.90;;;;;;5015885;28;20216;-72
2023/08/05 00:39:07;;;;;;;2.90;2.60;;;17.60;99.90;;;;;;5002547;28;20208;-72
2023/08/05 00:41:33;;;;;;;2.50;2.30;;;17.60;99.90;;;;;;5014139;28;20399;-72
2023/08/05 00:43:58;;;;;;;2.50;2.30;;;17.50;99.90;;;;;;4998144;28;20939;-73
2023/08/05 00:46:25;;;;;;;4.10;2.30;;;17.50;99.90;;;;;;4998711;28;20270;-72
2023/08/05 00:48:52;;;;;;;2.63;2.43;;;17.50;99.90;;;;;;5002122;28;21144;-72
2023/08/05 00:51:20;;;;;;;2.60;2.43;;;17.60;99.90;;;;;;5031514;28;20221;-71
2023/08/05 00:53:47;;;;;;;3.87;2.10;;;17.50;99.90;;;;;;5006281;28;20470;-73
2023/08/05 00:56:15;;;;;;;4.10;2.27;;;17.50;99.90;;;;;;5016441;28;20492;-72
2023/08/05 00:58:42;;;;;;;2.10;2.00;;;17.50;99.90;;;;;;5017557;28;20454;-72
2023/08/05 01:01:08;;;;;;;2.90;2.70;;;17.40;99.90;;;;;;5005801;28;20468;-72
2023/08/05 01:03:34;;;;;;;3.10;2.67;;;17.40;99.90;;;;;;5020974;28;20583;-73
2023/08/05 01:06:01;;;;;;;2.20;1.97;;;17.30;99.90;;;;;;5022779;28;20465;-72
2023/08/05 01:08:27;;;;;;;2.47;2.27;;;17.30;99.90;;;;;;5035759;28;20235;-72
2023/08/05 01:10:53;;;;;;;3.50;2.07;;;17.20;99.90;;;;;;5018053;28;20474;-72
2023/08/05 01:13:20;;;;;;;2.70;2.50;;;17.20;99.90;;;;;;5019651;28;20568;-72
2023/08/05 01:15:46;;;;;;;2.77;2.57;;;17.20;99.90;;;;;;5016763;28;20485;-72
2023/08/05 01:18:15;;;;;;;3.20;2.63;;;17.30;99.90;;;;;;5016948;28;20456;-72
2023/08/05 01:20:46;;;;;;;4.30;2.77;;;17.30;99.90;;;;;;5030728;28;20215;-72
2023/08/05 01:23:30;;;;;;;3.10;2.80;;;17.30;99.90;;;;;;5033362;28;20458;-70
2023/08/05 01:25:58;;;;;;;3.40;2.50;;;17.20;99.90;;;;;;5038598;28;20581;-72
2023/08/05 01:28:24;;;;;;;3.07;2.57;;;17.20;99.90;;;;;;5005453;28;20523;-73
2023/08/05 01:30:50;;;;;;;3.40;2.73;;;17.20;99.90;;;;;;5003046;28;21077;-72
2023/08/05 01:33:19;;;;;;;5.00;2.43;;;17.10;99.90;;;;;;5019906;28;20458;-73
2023/08/05 01:35:51;;;;;;;2.30;2.20;;;17.00;99.90;;;;;;5027748;28;20458;-73
2023/08/05 01:38:16;;;;;;;4.00;2.73;;;17.00;99.90;;;;;;5006196;28;20462;-70
2023/08/05 01:40:43;;;;;;;3.17;2.90;;;17.00;99.90;;;;;;4983455;28;20584;-72
2023/08/05 01:43:09;;;;;;;3.30;3.00;;;17.00;99.90;;;;;;5003743;28;20212;-71
2023/08/05 01:45:34;;;;;;;2.33;2.13;;;17.00;99.90;;;;;;5017012;28;20513;-72
2023/08/05 01:48:00;;;;;;;3.90;3.10;;;16.90;99.90;;;;;;5018674;28;20243;-72
2023/08/05 01:50:26;;;;;;;3.10;2.90;;;16.90;99.90;;;;;;5017922;28;20225;-73
2023/08/05 01:52:53;;;;;;;5.10;2.83;;;16.90;99.90;;;;;;5019186;28;20216;-71
2023/08/05 01:55:22;;;;;;;3.80;3.50;;;16.90;99.90;;;;;;5018374;28;20812;-72
2023/08/05 01:57:47;;;;;;;2.80;2.60;;;16.90;99.90;;;;;;5019703;28;20479;-72
2023/08/05 02:00:13;;;;;;;9.13;2.93;;;16.80;99.90;;;;;;5034988;28;20469;-71
2023/08/05 02:02:39;;;;;;;3.67;2.80;;;16.90;99.90;;;;;;5019989;28;20249;-73
2023/08/05 02:05:05;;;;;;;3.47;2.80;;;16.90;99.90;;;;;;5020869;28;20285;-72
2023/08/05 02:07:31;;;;;;;3.20;2.80;;;16.90;99.90;;;;;;5017787;28;20369;-72
2023/08/05 02:09:56;;;;;;;2.87;2.30;;;16.80;99.90;;;;;;5018331;28;20231;-72
2023/08/05 02:12:22;;;;;;;2.43;2.23;;;16.80;99.90;;;;;;5016312;28;20216;-72
2023/08/05 02:14:47;;;;;;;2.93;2.73;;;16.90;99.90;;;;;;5017468;28;20237;-71
2023/08/05 02:17:13;;;;;;;2.63;2.43;;;16.90;99.90;;;;;;5017776;28;20224;-72
2023/08/05 02:19:39;;;;;;;5.20;3.60;;;16.90;99.90;;;;;;5017824;28;20318;-73
2023/08/05 02:22:04;;;;;;;2.30;2.10;;;16.90;99.90;;;;;;5020331;28;20228;-72
2023/08/05 02:24:30;;;;;;;3.67;2.53;;;17.00;99.90;;;;;;5034191;28;20231;-73
2023/08/05 02:26:56;;;;;;;3.13;2.33;;;16.90;99.90;;;;;;5035321;28;20219;-72
2023/08/05 02:29:21;;;;;;;2.53;2.33;;;16.90;99.90;;;;;;5018915;28;20222;-71
2023/08/05 02:31:47;;;;;;;2.87;2.67;;;16.80;99.90;;;;;;5018249;28;20244;-72
2023/08/05 02:34:13;;;;;;;2.90;2.50;;;16.80;99.90;;;;;;5016262;28;20308;-71
2023/08/05 02:36:38;;;;;;;5.80;2.90;;;16.70;99.90;;;;;;5017631;28;20228;-72
2023/08/05 02:39:04;;;;;;;4.10;2.70;;;16.70;99.90;;;;;;5015506;28;20261;-72
2023/08/05 02:41:30;;;;;;;2.83;2.63;;;16.70;99.90;;;;;;5000577;28;20342;-71
2023/08/05 02:43:56;;;;;;;3.40;2.93;;;16.80;99.90;;;;;;5017360;28;20752;-71
2023/08/05 02:46:21;;;;;;;5.97;3.10;;;16.70;99.90;;;;;;5019523;28;20229;-71
2023/08/05 02:48:47;;;;;;;3.53;3.20;;;16.70;99.90;;;;;;5019876;28;20215;-72
2023/08/05 02:51:13;;;;;;;3.90;3.20;;;16.70;99.90;;;;;;5018473;28;20216;-72
2023/08/05 02:53:38;;;;;;;5.03;3.50;;;16.70;99.90;;;;;;5017377;28;20257;-72
2023/08/05 02:56:04;;;;;;;3.63;3.33;;;16.70;99.90;;;;;;5002149;28;20808;-72
2023/08/05 02:58:30;;;;;;;3.80;3.40;;;16.60;99.90;;;;;;5016090;28;20227;-72
2023/08/05 03:01:08;;;;;;;4.73;4.17;;;16.60;99.90;;;;;;5017404;28;20224;-72
2023/08/05 03:03:35;;;;;;;3.77;3.47;;;16.50;99.90;;;;;;5016471;28;20793;-72
2023/08/05 03:06:00;;;;;;;6.27;5.40;;;16.50;99.90;;;;;;5036310;28;20450;-71
2023/08/05 03:08:26;;;;;;;7.53;3.87;;;16.50;99.90;;;;;;5033543;28;20504;-72
2023/08/05 03:10:59;;;;;;;5.20;4.20;;;16.50;99.90;;;;;;5017606;28;20227;-70
2023/08/05 03:13:26;;;;;;;4.73;3.53;;;16.50;99.90;;;;;;5015078;28;20352;-72
2023/08/05 03:15:54;;;;;;;8.20;4.40;;;16.50;99.90;;;;;;5001824;28;20461;-72
2023/08/05 03:18:20;;;;;;;4.00;3.40;;;16.50;99.90;;;;;;5016790;28;20474;-72
2023/08/05 03:20:47;;;;;;;4.10;3.70;;;16.50;99.90;;;;;;5019829;28;21167;-72
2023/08/05 03:23:15;;;;;;;5.07;4.47;;;16.50;99.90;;;;;;5004001;28;20469;-73
2023/08/05 03:25:45;;;;;;;5.10;3.80;;;16.50;99.90;;;;;;5003709;28;20539;-72
2023/08/05 03:28:12;;;;;;;4.40;3.60;;;16.50;99.90;;;;;;5008475;28;20467;-72
2023/08/05 03:30:41;;;;;;;5.50;4.03;;;16.50;99.90;;;;;;5023673;28;20494;-72
2023/08/05 03:33:13;;;;;;;4.73;4.23;;;16.50;99.90;;;;;;5007831;28;21082;-72
2023/08/05 03:35:45;;;;;;;3.97;3.63;;;16.50;99.90;;;;;;5022199;28;20461;-71
2023/08/05 03:38:15;;;;;;;4.20;3.63;;;16.60;99.90;;;;;;5040938;28;20242;-71
2023/08/05 03:40:41;;;;;;;3.93;3.60;;;16.60;99.90;;;;;;5022385;28;20458;-72
2023/08/05 03:43:07;;;;;;;4.27;3.87;;;16.70;99.90;;;;;;5023599;28;21089;-72
2023/08/05 03:45:32;;;;;;;5.23;4.13;;;16.70;99.90;;;;;;5006099;28;20516;-73
2023/08/05 03:47:58;;;;;;;5.00;4.30;;;16.60;99.90;;;;;;5009456;28;20227;-72
2023/08/05 03:50:28;;;;;;;5.97;3.83;;;16.70;99.90;;;;;;5006021;28;20231;-71
2023/08/05 03:52:54;;;;;;;4.70;3.40;;;16.70;99.90;;;;;;5007218;28;20231;-72
2023/08/05 03:55:20;;;;;;;3.77;3.47;;;16.70;99.90;;;;;;5023531;28;20474;-73
2023/08/05 03:57:47;;;;;;;7.77;5.23;;;16.70;99.90;;;;;;5007133;28;20458;-72
2023/08/05 04:00:13;;;;;;;6.70;4.30;;;16.70;99.90;;;;;;5040758;28;20965;-71
2023/08/05 04:02:40;;;;;;;4.47;3.67;;;16.70;99.90;;;;;;5008402;28;20469;-72
2023/08/05 04:05:07;;;;;;;4.37;3.97;;;16.60;99.90;;;;;;5039976;28;20528;-72
2023/08/05 04:07:33;;;;;;;3.73;3.43;;;16.60;99.90;;;;;;5040263;28;20462;-72
2023/08/05 04:09:59;;;;;;;4.93;3.97;;;16.60;99.90;;;;;;5007267;28;21083;-72
2023/08/05 04:12:26;;;;;;;6.43;4.23;;;16.40;99.90;;;;;;5023485;28;20515;-71
2023/08/05 04:14:53;;;;;;;5.83;4.60;;;16.20;99.90;;;;;;5038301;28;20469;-71
2023/08/05 04:17:21;;;;;;;4.30;4.00;;;16.00;99.90;;;;;;5007816;28;21104;-72
2023/08/05 04:19:48;;;;;;;9.97;3.80;;;15.90;99.90;;;;;;5005664;28;20517;-72
2023/08/05 04:22:16;;;;;;;5.80;3.47;;;15.80;99.90;;;;;;5005126;28;21142;-71
2023/08/05 04:24:45;;;;;;;5.23;3.63;;;15.70;99.90;;;;;;5038082;28;20454;-73
2023/08/05 04:27:11;;;;;;;5.07;3.60;;;15.70;99.90;;;;;;5006327;28;20466;-70
2023/08/05 04:29:37;;;;;;;9.07;4.10;;;15.40;99.90;;;;;;5006590;28;20474;-71
2023/08/05 04:32:03;;;;;;;5.33;4.07;;;15.20;99.90;;;;;;5007007;28;20930;-72
2023/08/05 04:34:33;;;;;;;4.87;4.40;;;15.10;99.90;;;;;;5038218;28;20245;-71
2023/08/05 04:37:18;;;;;;;3.63;3.33;;;15.00;99.90;;;;;;5004089;28;20487;-72
2023/08/05 04:39:44;;;;;;;3.83;3.40;;;14.90;99.90;;;;;;5020899;28;20490;-72
2023/08/05 04:42:10;;;;;;;5.33;3.80;;;15.10;99.90;;;;;;5005952;28;21069;-72
2023/08/05 04:44:40;;;;;;;4.43;2.80;;;15.30;99.90;;;;;;5020822;28;20475;-72
2023/08/05 04:47:10;;;;;;;5.43;4.20;;;15.40;99.90;;;;;;5022972;28;20228;-71
2023/08/05 04:49:38;;;;;;;11.23;4.50;;;15.20;99.90;;;;;;5021434;28;20496;-72
2023/08/05 04:52:06;;;;;;;5.87;3.93;;;15.20;99.90;;;;;;5022194;28;20517;-71
2023/08/05 04:54:38;;;;;;;6.63;3.80;;;15.20;99.90;;;;;;5005861;28;21075;-72
2023/08/05 04:57:05;;;;;;;5.17;3.70;;;15.20;99.90;;;;;;5006236;28;20605;-71
2023/08/05 04:59:31;;;;;;;4.33;3.93;;;15.20;99.90;;;;;;5039853;28;20475;-72
2023/08/05 05:01:57;;;;;;;6.53;4.27;;;15.20;99.90;;;;;;5019883;28;20467;-72
2023/08/05 05:04:22;;;;;;;7.63;4.47;;;15.20;99.90;;;;;;5021037;28;20485;-71
2023/08/05 05:06:48;;;;;;;4.30;3.87;;;15.20;99.90;;;;;;5006321;28;20224;-72
2023/08/05 05:09:13;;;;;;;4.30;3.90;;;15.10;99.90;;;;;;5005366;28;20240;-71
2023/08/05 05:11:39;;;;;;;3.90;3.40;;;15.00;99.90;;;;;;4960878;28;1076940;-70
2023/08/05 05:14:06;;;;;;;7.07;4.00;;;15.20;99.90;;;;;;5023783;28;20231;-71
2023/08/05 05:16:32;;;;;;;4.50;3.90;;;15.30;99.90;;;;;;5004619;28;20234;-70
2023/08/05 05:18:57;;;;;;;3.80;3.50;;;15.30;99.90;;;;;;5021475;28;20469;-72
2023/08/05 05:21:23;;;;;;;5.10;4.13;;;15.40;99.90;;;;;;5006067;28;20490;-70
2023/08/05 05:23:49;;;;;;;6.73;4.30;;;15.40;99.90;;;;;;5005676;28;20699;-71
2023/08/05 05:26:14;;;;;;;4.53;3.57;;;15.30;99.90;;;;;;5006473;28;20212;-70
2023/08/05 05:28:40;;;;;;;5.27;4.53;;;15.30;99.90;;;;;;5005366;28;20826;-72
2023/08/05 05:31:06;;;;;;;8.00;3.97;;;15.30;99.90;;;;;;5006208;28;20705;-71
2023/08/05 05:33:32;;;;;;;5.43;4.57;;;15.50;99.90;;;;;;5003224;28;20256;-72
2023/08/05 05:35:57;;;;;;;4.23;3.80;;;15.50;99.90;;;;;;5006262;28;20335;-72
2023/08/05 05:38:23;;;;;;;5.00;3.23;;;15.60;99.90;;;;;;5021531;28;20228;-72
2023/08/05 05:40:48;;;;;;;3.70;3.40;;;15.70;99.90;;;;;;5005134;28;20263;-72
2023/08/05 05:43:14;;;;;;;4.00;3.60;;;15.80;99.90;;;;;;5022017;28;20213;-72
2023/08/05 05:45:40;;;;;;;5.13;3.67;;;16.00;99.90;;;;;;5005308;28;20300;-72
2023/08/05 05:48:06;;;;;;;4.03;3.63;;;16.10;99.90;;;;;;5022944;28;20240;-72
2023/08/05 05:50:31;;;;;;;7.13;4.30;;;16.10;99.90;;;;;;5005330;28;20215;-72
2023/08/05 05:52:57;;;;;;;5.40;4.43;;;16.20;99.90;;;;;;5021548;28;20293;-72
2023/08/05 05:55:23;;;;;;;8.17;4.53;;;16.20;99.90;;;;;;5039804;28;20220;-72
2023/08/05 05:57:49;;;;;;;5.87;4.90;;;16.20;99.90;;;;;;5004276;28;20236;-72
2023/08/05 06:00:15;;;;;;;7.50;5.27;;;16.20;99.90;;;;;;5006227;28;20472;-73
2023/08/05 06:02:41;;;;;;;4.73;3.93;;;16.20;99.90;;;;;;5036937;28;20228;-73
2023/08/05 06:05:07;;;;;;;5.60;4.73;;;16.30;99.90;;;;;;5040547;28;20485;-73
2023/08/05 06:07:33;;;;;;;5.97;4.67;;;16.40;99.90;;;;;;5021877;28;20477;-72
2023/08/05 06:09:59;;;;;;;5.20;4.53;;;16.40;99.90;;;;;;5022180;28;21079;-73
2023/08/05 06:12:30;;;;;;;7.63;5.20;;;16.40;99.90;;;;;;5020349;28;20262;-72
2023/08/05 06:14:56;;;;;;;6.70;4.90;;;16.40;99.90;;;;;;5005644;28;20258;-72
2023/08/05 06:17:21;;;;;;;6.13;4.83;;;16.40;99.90;;;;;;5023245;28;20474;-72
2023/08/05 06:19:47;;;;;;;6.90;4.60;;;16.50;99.90;;;;;;5023151;28;20226;-72
2023/08/05 06:22:13;;;;;;;5.57;4.90;;;16.60;99.90;;;;;;5003721;28;20234;-72
2023/08/05 06:24:39;;;;;;;6.53;4.57;;;16.60;99.90;;;;;;5003901;28;20227;-71
2023/08/05 06:27:05;;;;;;;8.20;5.13;;;16.70;99.90;;;;;;5037401;28;20330;-72
2023/08/05 06:29:30;;;;;;;5.30;4.07;;;16.80;99.90;;;;;;5020618;28;20343;-72
2023/08/05 06:31:56;;;;;;;5.70;4.10;;;16.80;99.90;;;;;;5001544;28;20458;-73
2023/08/05 06:34:22;;;;;;;7.87;5.73;;;16.80;99.90;;;;;;5003837;28;20231;-72
2023/08/05 06:36:47;;;;;;;6.30;4.93;;;16.80;99.90;;;;;;5022467;28;20224;-73
2023/08/05 06:39:13;;;;;;;6.80;5.20;;;16.80;99.90;;;;;;4989019;28;20225;-72
2023/08/05 06:41:39;;;;;;;7.47;5.27;;;16.90;99.90;;;;;;5003232;28;20776;-72
2023/08/05 06:44:04;;;;;;;5.70;4.63;;;16.90;99.90;;;;;;5023245;28;20232;-72
2023/08/05 06:46:30;;;;;;;8.17;5.27;;;16.90;99.90;;;;;;5020984;28;20223;-72
2023/08/05 06:48:57;;;;;;;5.33;4.83;;;16.90;99.90;;;;;;5005879;28;20923;-72
2023/08/05 06:51:23;;;;;;;8.67;6.40;;;16.90;99.90;;;;;;4993982;28;20711;-73
2023/08/05 06:53:49;;;;;;;10.27;6.20;;;16.90;99.90;;;;;;5021936;28;20536;-72
2023/08/05 06:56:15;;;;;;;8.40;5.10;;;16.90;99.90;;;;;;5003336;28;20466;-71
2023/08/05 06:58:40;;;;;;;7.60;5.37;;;17.00;99.90;;;;;;4989090;28;20689;-72
2023/08/05 07:01:06;;;;;;;12.10;6.63;;;17.10;99.90;;;;;;5020566;28;20249;-72
2023/08/05 07:03:32;;;;;;;7.23;5.23;;;17.10;99.90;;;;;;5022386;28;20751;-71
2023/08/05 07:05:57;;;;;;;7.27;5.03;;;17.20;99.90;;;;;;5020709;28;20227;-72
2023/08/05 07:08:25;;;;;;;8.00;5.70;;;17.20;99.90;;;;;;5019722;28;20254;-71
2023/08/05 07:10:58;;;;;;;7.67;5.47;;;17.20;99.90;;;;;;4985822;28;20228;-72
2023/08/05 07:13:27;;;;;;;8.50;5.73;;;17.20;99.90;;;;;;5003957;28;21100;-72
2023/08/05 07:16:03;;;;;;;6.03;5.10;;;17.20;99.90;;;;;;5020581;28;20506;-73
2023/08/05 07:18:29;;;;;;;9.50;6.47;;;17.20;99.90;;;;;;5020919;28;20472;-71
2023/08/05 07:20:55;;;;;;;8.43;6.53;;;17.40;99.90;;;;;;5018508;28;20558;-71
2023/08/05 07:23:21;;;;;;;10.13;6.43;;;17.40;99.90;;;;;;5019098;28;20581;-73
2023/08/05 07:25:47;;;;;;;6.20;5.50;;;17.40;99.90;;;;;;5018264;28;20231;-73
2023/08/05 07:28:13;;;;;;;7.67;5.97;;;17.50;99.90;;;;;;5036352;28;20230;-72
2023/08/05 07:30:39;;;;;;;8.27;5.50;;;17.60;99.90;;;;;;5018770;28;20463;-71
2023/08/05 07:33:07;;;;;;;6.03;4.90;;;17.70;99.90;;;;;;5019361;28;20224;-72
2023/08/05 07:35:33;;;;;;;5.17;4.67;;;17.80;99.90;;;;;;5020297;28;20480;-72
2023/08/05 07:38:01;;;;;;;8.23;5.97;;;17.80;99.90;;;;;;5002676;28;21086;-72
2023/08/05 07:40:27;;;;;;;7.90;5.33;;;17.90;99.90;;;;;;5001184;28;20467;-72
2023/08/05 07:42:53;;;;;;;5.70;5.10;;;17.90;99.90;;;;;;5034347;28;20462;-73
2023/08/05 07:45:21;;;;;;;5.77;5.20;;;18.00;99.90;;;;;;4999253;28;20486;-72
2023/08/05 07:47:47;;;;;;;6.07;5.20;;;18.10;99.90;;;;;;5040541;28;20449;-73
2023/08/05 07:50:21;;;;;;;5.07;4.40;;;18.20;99.90;;;;;;5039344;28;20470;-72
2023/08/05 07:52:47;;;;;;;9.90;5.20;;;18.30;99.90;;;;;;5008233;28;20466;-72
2023/08/05 07:55:12;;;;;;;5.90;4.43;;;18.30;99.90;;;;;;5017843;28;20576;-73
2023/08/05 07:57:40;;;;;;;7.30;5.87;;;18.40;99.90;;;;;;5035210;28;20575;-73
2023/08/05 08:00:09;;;;;;;8.47;5.00;;;18.50;99.90;;;;;;5002974;28;20223;-72
2023/08/05 08:02:38;;;;;;;6.23;4.27;;;18.50;99.90;;;;;;5020313;28;20493;-73
2023/08/05 08:05:05;;;;;;;4.83;4.37;;;18.60;99.90;;;;;;5037185;28;20650;-73
2023/08/05 08:07:31;;;;;;;5.93;4.50;;;18.60;99.90;;;;;;5023615;28;20540;-72
2023/08/05 08:09:57;;;;;;;6.37;5.20;;;18.60;99.90;;;;;;4999197;28;20474;-72
2023/08/05 08:12:23;;;;;;;6.30;4.77;;;18.60;99.90;;;;;;5025240;28;20493;-72
2023/08/05 08:14:48;;;;;;;6.07;4.80;;;18.60;99.90;;;;;;5007685;28;20227;-73
2023/08/05 08:17:16;;;;;;;4.70;4.20;;;18.70;99.90;;;;;;5008812;28;20232;-73
2023/08/05 08:19:42;;;;;;;5.10;4.70;;;18.70;99.90;;;;;;5022573;28;20220;-73
2023/08/05 08:22:07;;;;;;;5.00;4.50;;;18.90;99.90;;;;;;5006790;28;20462;-73
2023/08/05 08:24:33;;;;;;;4.60;3.90;;;19.00;99.90;;;;;;5006600;28;21907;-73
2023/08/05 08:26:59;;;;;;;4.27;3.87;;;19.10;99.90;;;;;;5023331;28;20232;-73
2023/08/05 08:29:24;;;;;;;4.60;4.20;;;19.10;99.90;;;;;;5024209;28;20281;-73
2023/08/05 08:31:50;;;;;;;4.43;3.77;;;19.10;99.90;;;;;;5023178;28;20239;-73
2023/08/05 08:34:16;;;;;;;3.77;3.37;;;19.20;99.90;;;;;;5023084;28;20260;-74
2023/08/05 08:36:41;;;;;;;4.27;3.87;;;19.30;99.90;;;;;;5004972;28;20231;-74
2023/08/05 08:39:07;;;;;;;6.73;3.80;;;19.40;99.90;;;;;;5024010;28;20223;-74
2023/08/05 08:41:41;;;;;;;4.20;3.80;;;19.60;99.90;;;;;;5006288;28;20224;-73
2023/08/05 08:44:08;;;;;;;2.83;2.63;;;19.80;99.90;;;;;;5023478;28;20232;-74
2023/08/05 08:46:34;;;;;;;3.23;3.03;;;19.90;99.90;;;;;;5007875;28;20540;-73
2023/08/05 08:49:00;;;;;;;2.90;2.70;;;20.10;99.90;;;;;;5007103;28;20514;-73
2023/08/05 08:51:26;;;;;;;3.67;3.37;;;20.00;99.90;;;;;;5005845;28;20212;-73
2023/08/05 08:53:51;;;;;;;4.03;3.70;;;20.00;99.90;;;;;;5025065;28;20220;-73
2023/08/05 08:56:17;;;;;;;5.00;3.97;;;20.00;99.90;;;;;;5007290;28;20494;-73
2023/08/05 08:58:43;;;;;;;4.37;3.00;;;20.10;99.90;;;;;;5007639;28;20332;-73
2023/08/05 09:01:10;;;;;;;4.43;3.23;;;20.20;99.90;;;;;;5020595;28;20268;-73
2023/08/05 09:03:37;;;;;;;4.50;3.27;;;20.40;99.90;;;;;;5003858;28;20631;-73
2023/08/05 09:06:03;;;;;;;3.57;3.27;;;20.50;99.90;;;;;;5022362;28;20470;-73
2023/08/05 09:08:29;;;;;;;4.20;2.90;;;20.60;99.90;;;;;;4998677;28;20540;-73
2023/08/05 09:10:55;;;;;;;4.33;3.37;;;20.70;99.90;;;;;;5003839;28;20231;-73
2023/08/05 09:13:21;;;;;;;3.27;2.90;;;20.70;99.90;;;;;;5003681;28;20493;-73
2023/08/05 09:15:50;;;;;;;3.00;2.77;;;20.80;99.90;;;;;;5003792;28;20232;-73
2023/08/05 09:18:15;;;;;;;3.00;2.70;;;20.90;99.90;;;;;;5003460;28;21102;-73
2023/08/05 09:20:41;;;;;;;3.17;2.87;;;21.00;99.90;;;;;;5003675;28;20496;-73
2023/08/05 09:23:10;;;;;;;2.70;2.50;;;21.00;99.90;;;;;;5037690;28;20298;-73
2023/08/05 09:25:40;;;;;;;2.73;2.50;;;21.10;99.90;;;;;;5002983;28;20239;-73
2023/08/05 09:28:06;;;;;;;4.07;3.10;;;21.30;99.90;;;;;;5004455;28;21118;-73
2023/08/05 09:30:33;;;;;;;2.97;2.77;;;21.30;99.90;;;;;;5002132;28;20485;-73
2023/08/05 09:32:59;;;;;;;3.03;2.83;;;21.30;99.90;;;;;;5021277;28;20219;-73
2023/08/05 09:35:28;;;;;;;3.03;2.77;;;21.40;99.90;;;;;;5022332;28;20470;-74
2023/08/05 09:37:54;;;;;;;4.17;2.80;;;21.50;99.90;;;;;;5001955;28;20227;-73
2023/08/05 09:40:36;;;;;;;3.93;3.27;;;21.70;99.90;;;;;;5003160;28;22038;-74
2023/08/05 09:43:03;;;;;;;3.00;2.80;;;22.00;99.90;;;;;;5019684;28;20523;-74
2023/08/05 09:45:32;;;;;;;2.83;2.63;;;22.00;99.90;;;;;;5006248;28;21560;-74
2023/08/05 09:48:07;;;;;;;3.73;2.97;;;22.10;99.90;;;;;;5022325;28;20470;-74
2023/08/05 09:50:37;;;;;;;3.67;3.10;;;22.30;99.90;;;;;;5021269;28;20582;-73
2023/08/05 09:53:06;;;;;;;4.33;2.70;;;22.40;99.90;;;;;;5003014;28;20475;-73
2023/08/05 09:55:33;;;;;;;3.30;3.00;;;22.40;99.90;;;;;;5005508;28;20487;-73
2023/08/05 09:57:59;;;;;;;3.10;2.90;;;22.50;99.90;;;;;;5013674;28;20473;-73
2023/08/05 10:00:27;;;;;;;3.77;2.87;;;22.50;99.90;;;;;;4991097;28;20461;-73
2023/08/05 10:02:54;;;;;;;8.00;3.00;;;22.50;99.90;;;;;;4996007;28;20477;-74
2023/08/05 10:05:22;;;;;;;2.87;2.67;;;22.70;99.90;;;;;;4978808;28;20601;-74
2023/08/05 10:07:53;;;;;;;3.53;2.47;;;22.90;99.90;;;;;;5014064;28;20501;-74
2023/08/05 10:10:22;;;;;;;4.70;2.77;;;23.00;99.90;;;;;;4996605;28;20462;-73
2023/08/05 10:12:51;;;;;;;2.97;2.50;;;23.00;99.90;;;;;;5005068;28;20536;-74
2023/08/05 10:15:31;;;;;;;3.30;3.00;;;23.20;99.90;;;;;;5011807;28;20476;-74
2023/08/05 10:17:57;;;;;;;4.00;2.73;;;23.30;99.90;;;;;;5001960;28;21277;-73
2023/08/05 10:20:23;;;;;;;2.93;2.73;;;23.30;99.90;;;;;;5000811;28;20552;-74
2023/08/05 10:23:02;;;;;;;3.23;2.70;;;23.30;99.90;;;;;;5001155;28;20921;-74
2023/08/05 10:25:43;;;;;;;3.17;2.87;;;23.80;99.90;;;;;;5007221;28;20303;-73
2023/08/05 10:28:28;;;;;;;4.03;2.63;;;24.00;99.90;;;;;;5020029;28;20471;-74
2023/08/05 10:30:54;;;;;;;3.17;2.87;;;24.20;99.90;;;;;;5009925;28;20462;-74
2023/08/05 10:33:20;;;;;;;2.80;2.60;;;24.20;99.90;;;;;;4991868;28;20469;-74
2023/08/05 10:35:49;;;;;;;3.40;2.90;;;24.10;99.90;;;;;;5010371;28;20468;-74
2023/08/05 10:38:19;;;;;;;6.03;2.80;;;24.00;99.90;;;;;;4997855;28;20471;-74
2023/08/05 10:40:51;;;;;;;2.50;2.40;;;24.00;99.90;;;;;;5004660;28;20497;-74
2023/08/05 10:43:41;;;;;;;2.67;2.43;;;23.90;99.90;;;;;;5020799;28;21871;-74
2023/08/05 10:46:06;;;;;;;3.30;3.00;;;24.10;99.90;;;;;;5038942;28;20511;-74
2023/08/05 10:48:41;;;;;;;3.00;2.80;;;24.20;99.90;;;;;;5022702;28;20466;-74
2023/08/05 10:51:22;;;;;;;3.00;2.80;;;24.50;99.90;;;;;;5040351;28;20352;-74
2023/08/05 10:53:51;;;;;;;2.70;2.50;;;24.60;99.90;;;;;;5011797;28;21060;-74
2023/08/05 10:56:18;;;;;;;2.73;2.53;;;24.80;99.90;;;;;;5023235;28;20472;-74
2023/08/05 10:58:51;;;;;;;2.67;2.47;;;24.90;99.90;;;;;;5023074;28;20457;-74
2023/08/05 11:01:18;;;;;;;2.83;2.63;;;25.10;99.90;;;;;;5040444;28;20549;-74
2023/08/05 11:03:56;;;;;;;2.80;2.50;;;25.20;99.90;;;;;;5023042;28;21198;-74
2023/08/05 11:06:23;;;;;;;3.03;2.83;;;25.30;99.90;;;;;;5041211;28;20456;-74
2023/08/05 11:08:49;;;;;;;3.37;3.13;;;25.30;99.90;;;;;;5038200;28;21518;-74
2023/08/05 11:11:15;;;;;;;4.43;2.70;;;25.20;99.90;;;;;;5019877;28;20977;-74
2023/08/05 11:13:45;;;;;;;2.57;2.37;;;25.20;99.90;;;;;;5021513;28;20572;-74
2023/08/05 11:16:15;;;;;;;3.40;3.10;;;25.10;99.90;;;;;;5038739;28;20449;-74
2023/08/05 11:18:45;;;;;;;2.83;2.50;;;25.20;99.90;;;;;;5024272;28;20445;-74
2023/08/05 11:21:13;;;;;;;2.33;2.17;;;25.20;99.90;;;;;;5021916;28;20457;-74
2023/08/05 11:23:42;;;;;;;2.90;2.70;;;25.30;99.90;;;;;;5036130;28;20460;-74
2023/08/05 11:26:09;;;;;;;3.13;2.93;;;25.30;99.90;;;;;;5000844;28;20591;-75
2023/08/05 11:28:35;;;;;;;3.40;3.00;;;25.30;99.90;;;;;;5005447;28;20623;-74
2023/08/05 11:31:02;;;;;;;3.33;3.00;;;25.30;99.90;;;;;;5014543;28;20473;-74
2023/08/05 11:33:28;;;;;;;2.90;2.70;;;25.40;99.90;;;;;;5014583;28;20564;-74
2023/08/05 11:35:54;;;;;;;2.60;2.40;;;25.60;99.90;;;;;;5015263;28;20477;-74
2023/08/05 11:38:24;;;;;;;2.53;2.33;;;25.50;99.90;;;;;;5016316;28;20504;-75
2023/08/05 11:40:52;;;;;;;2.67;2.50;;;25.70;99.90;;;;;;5031940;28;20531;-74
2023/08/05 11:43:20;;;;;;;2.90;2.70;;;25.80;99.90;;;;;;5024148;28;20484;-74
2023/08/05 11:45:47;;;;;;;2.87;2.67;;;26.00;99.90;;;;;;5003319;28;20488;-74
2023/08/05 11:48:22;;;;;;;2.67;2.53;;;25.90;99.90;;;;;;5023925;28;20626;-74
2023/08/05 11:50:57;;;;;;;2.73;2.53;;;26.00;99.90;;;;;;5020595;28;20463;-74
2023/08/05 11:53:23;;;;;;;2.57;2.43;;;26.10;99.90;;;;;;5021944;28;20483;-75
2023/08/05 11:55:48;;;;;;;2.50;2.30;;;26.20;99.90;;;;;;5024652;28;20498;-74
2023/08/05 11:58:14;;;;;;;2.40;2.20;;;26.20;99.90;;;;;;5024773;28;20252;-74
2023/08/05 12:00:45;;;;;;;2.90;2.60;;;26.30;99.90;;;;;;5023098;28;20224;-74
2023/08/05 12:03:11;;;;;;;3.37;2.87;;;26.50;99.90;;;;;;5023474;28;20513;-74
2023/08/05 12:05:37;;;;;;;2.97;2.77;;;26.60;99.90;;;;;;5040427;28;21544;-74
2023/08/05 12:08:03;;;;;;;2.97;2.77;;;26.70;99.90;;;;;;5041370;28;20305;-75
2023/08/05 12:10:29;;;;;;;2.57;2.43;;;26.70;99.90;;;;;;5039291;28;20219;-74
2023/08/05 12:12:55;;;;;;;5.00;3.60;;;26.80;99.90;;;;;;5038678;28;20303;-74
2023/08/05 12:15:26;;;;;;;2.10;2.00;;;26.90;99.90;;;;;;5039808;28;21668;-75
2023/08/05 12:17:55;;;;;;;2.40;2.30;;;26.80;99.90;;;;;;5038347;28;20223;-74
2023/08/05 12:20:38;;;;;;;2.10;2.00;;;26.80;99.90;;;;;;5023743;28;21124;-75
2023/08/05 12:23:05;;;;;;;2.60;2.30;;;26.70;99.90;;;;;;5022112;28;20477;-74
2023/08/05 12:25:32;;;;;;;2.60;2.40;;;26.50;99.90;;;;;;5023275;28;20674;-74
2023/08/05 12:27:58;;;;;;;2.40;2.30;;;26.40;99.90;;;;;;5030464;28;20573;-75
2023/08/05 12:30:24;;;;;;;2.50;2.40;;;26.20;99.90;;;;;;4979517;28;21280;-74
2023/08/05 12:32:50;;;;;;;2.70;2.50;;;26.00;99.90;;;;;;5001432;28;22045;-75
2023/08/05 12:35:16;;;;;;;2.30;2.10;;;25.90;99.90;;;;;;4996252;28;20487;-74
2023/08/05 12:37:42;;;;;;;3.23;2.33;;;25.80;99.90;;;;;;5019397;28;20220;-74
2023/08/05 12:40:09;;;;;;;2.70;2.50;;;25.70;99.90;;;;;;5037375;28;20508;-75
2023/08/05 12:42:35;;;;;;;2.70;2.50;;;25.50;99.90;;;;;;5020712;28;20419;-75
2023/08/05 12:45:05;;;;;;;3.00;2.80;;;25.30;99.90;;;;;;5020741;28;20484;-74